sensor_id;sensor_type;location;lat;lon;timestamp;temperature;humidity
80367;DHT22;70058;42.660;23.366;2023-05-17T00:01:43;16.80;72.00
80367;DHT22;70058;42.660;23.366;2023-05-17T00:04:09;16.70;71.40
80367;DHT22;70058;42.660;23.366;2023-05-17T00:06:35;16.60;71.50
80367;DHT22;70058;42.660;23.366;2023-05-17T00:09:00;16.50;71.60
80367;DHT22;70058;42.660;23.366;2023-05-17T00:11:26;16.40;71.90
80367;DHT22;70058;42.660;23.366;2023-05-17T00:13:52;16.40;72.10
80367;DHT22;70058;42.660;23.366;2023-05-17T00:16:18;16.40;72.20
80367;DHT22;70058;42.660;23.366;2023-05-17T00:18:43;16.30;72.40
80367;DHT22;70058;42.660;23.366;2023-05-17T00:21:09;16.20;72.50
80367;DHT22;70058;42.660;23.366;2023-05-17T00:23:35;16.30;72.80
80367;DHT22;70058;42.660;23.366;2023-05-17T00:26:00;16.20;72.80
80367;DHT22;70058;42.660;23.366;2023-05-17T00:28:26;16.20;72.90
80367;DHT22;70058;42.660;23.366;2023-05-17T00:30:51;16.10;72.80
80367;DHT22;70058;42.660;23.366;2023-05-17T00:33:17;16.10;73.70
80367;DHT22;70058;42.660;23.366;2023-05-17T00:35:43;16.10;73.00
80367;DHT22;70058;42.660;23.366;2023-05-17T00:38:09;16.00;73.00
80367;DHT22;70058;42.660;23.366;2023-05-17T00:40:34;16.00;73.00
80367;DHT22;70058;42.660;23.366;2023-05-17T00:43:00;15.90;73.10
80367;DHT22;70058;42.660;23.366;2023-05-17T00:45:26;15.90;73.20
80367;DHT22;70058;42.660;23.366;2023-05-17T00:47:51;15.90;73.20
80367;DHT22;70058;42.660;23.366;2023-05-17T00:50:17;15.80;73.40
80367;DHT22;70058;42.660;23.366;2023-05-17T00:52:43;15.80;73.50
80367;DHT22;70058;42.660;23.366;2023-05-17T00:55:09;15.80;73.50
80367;DHT22;70058;42.660;23.366;2023-05-17T00:57:35;15.70;73.60
80367;DHT22;70058;42.660;23.366;2023-05-17T01:00:01;15.70;73.80
80367;DHT22;70058;42.660;23.366;2023-05-17T01:02:27;15.60;73.90
80367;DHT22;70058;42.660;23.366;2023-05-17T01:04:53;15.60;74.00
80367;DHT22;70058;42.660;23.366;2023-05-17T01:07:18;15.60;74.10
80367;DHT22;70058;42.660;23.366;2023-05-17T01:09:44;15.60;74.20
80367;DHT22;70058;42.660;23.366;2023-05-17T01:15:23;15.60;74.10
80367;DHT22;70058;42.660;23.366;2023-05-17T01:18:11;15.60;74.00
80367;DHT22;70058;42.660;23.366;2023-05-17T01:20:40;15.60;73.90
80367;DHT22;70058;42.660;23.366;2023-05-17T01:23:26;15.50;74.00
80367;DHT22;70058;42.660;23.366;2023-05-17T01:26:41;15.50;74.10
80367;DHT22;70058;42.660;23.366;2023-05-17T01:29:01;15.40;74.30
80367;DHT22;70058;42.660;23.366;2023-05-17T01:31:27;15.40;74.40
80367;DHT22;70058;42.660;23.366;2023-05-17T01:33:52;15.40;74.40
80367;DHT22;70058;42.660;23.366;2023-05-17T01:36:18;15.30;74.50
80367;DHT22;70058;42.660;23.366;2023-05-17T01:38:45;15.30;74.60
80367;DHT22;70058;42.660;23.366;2023-05-17T01:41:22;15.30;74.60
80367;DHT22;70058;42.660;23.366;2023-05-17T01:44:01;15.30;75.40
80367;DHT22;70058;42.660;23.366;2023-05-17T01:46:48;15.20;74.60
80367;DHT22;70058;42.660;23.366;2023-05-17T01:49:29;15.20;74.60
80367;DHT22;70058;42.660;23.366;2023-05-17T01:52:10;15.20;74.50
80367;DHT22;70058;42.660;23.366;2023-05-17T01:55:01;15.20;74.30
80367;DHT22;70058;42.660;23.366;2023-05-17T01:57:32;15.20;74.20
80367;DHT22;70058;42.660;23.366;2023-05-17T02:00:02;15.10;74.30
80367;DHT22;70058;42.660;23.366;2023-05-17T02:02:29;15.10;74.30
80367;DHT22;70058;42.660;23.366;2023-05-17T02:04:55;15.10;74.40
80367;DHT22;70058;42.660;23.366;2023-05-17T02:07:20;15.00;74.50
80367;DHT22;70058;42.660;23.366;2023-05-17T02:09:46;15.00;74.60
80367;DHT22;70058;42.660;23.366;2023-05-17T02:12:12;14.90;74.60
80367;DHT22;70058;42.660;23.366;2023-05-17T02:14:37;14.90;74.70
80367;DHT22;70058;42.660;23.366;2023-05-17T02:17:03;14.90;74.80
80367;DHT22;70058;42.660;23.366;2023-05-17T02:19:30;14.90;74.90
80367;DHT22;70058;42.660;23.366;2023-05-17T02:21:56;14.90;74.80
80367;DHT22;70058;42.660;23.366;2023-05-17T02:24:22;14.80;74.80
80367;DHT22;70058;42.660;23.366;2023-05-17T02:26:47;14.80;74.90
80367;DHT22;70058;42.660;23.366;2023-05-17T02:29:13;14.80;74.90
80367;DHT22;70058;42.660;23.366;2023-05-17T02:31:39;14.80;74.80
80367;DHT22;70058;42.660;23.366;2023-05-17T02:34:05;14.80;74.80
80367;DHT22;70058;42.660;23.366;2023-05-17T02:36:31;14.80;74.70
80367;DHT22;70058;42.660;23.366;2023-05-17T02:38:57;14.80;74.60
80367;DHT22;70058;42.660;23.366;2023-05-17T02:41:22;14.80;74.40
80367;DHT22;70058;42.660;23.366;2023-05-17T02:43:48;14.70;74.50
80367;DHT22;70058;42.660;23.366;2023-05-17T02:46:14;14.70;74.60
80367;DHT22;70058;42.660;23.366;2023-05-17T02:48:40;14.70;74.70
80367;DHT22;70058;42.660;23.366;2023-05-17T02:51:05;14.70;74.80
80367;DHT22;70058;42.660;23.366;2023-05-17T02:53:31;14.60;74.80
80367;DHT22;70058;42.660;23.366;2023-05-17T02:55:57;14.60;75.00
80367;DHT22;70058;42.660;23.366;2023-05-17T02:58:23;14.60;74.80
80367;DHT22;70058;42.660;23.366;2023-05-17T03:00:49;14.60;74.90
80367;DHT22;70058;42.660;23.366;2023-05-17T03:03:15;14.60;74.80
80367;DHT22;70058;42.660;23.366;2023-05-17T03:05:41;14.50;74.20
80367;DHT22;70058;42.660;23.366;2023-05-17T03:08:07;14.50;74.60
80367;DHT22;70058;42.660;23.366;2023-05-17T03:10:32;14.50;74.70
80367;DHT22;70058;42.660;23.366;2023-05-17T03:12:58;14.50;74.50
80367;DHT22;70058;42.660;23.366;2023-05-17T03:15:24;14.40;73.90
80367;DHT22;70058;42.660;23.366;2023-05-17T03:17:54;14.20;74.00
80367;DHT22;70058;42.660;23.366;2023-05-17T03:20:21;14.30;74.40
80367;DHT22;70058;42.660;23.366;2023-05-17T03:22:47;14.40;74.40
80367;DHT22;70058;42.660;23.366;2023-05-17T03:25:13;14.40;73.90
80367;DHT22;70058;42.660;23.366;2023-05-17T03:27:38;14.20;73.10
80367;DHT22;70058;42.660;23.366;2023-05-17T03:30:05;14.40;73.70
80367;DHT22;70058;42.660;23.366;2023-05-17T03:32:30;14.50;73.50
80367;DHT22;70058;42.660;23.366;2023-05-17T03:34:56;14.20;72.50
80367;DHT22;70058;42.660;23.366;2023-05-17T03:37:22;14.30;73.40
80367;DHT22;70058;42.660;23.366;2023-05-17T03:39:47;14.50;73.40
80367;DHT22;70058;42.660;23.366;2023-05-17T03:42:13;14.60;72.30
80367;DHT22;70058;42.660;23.366;2023-05-17T03:44:39;14.70;71.40
80367;DHT22;70058;42.660;23.366;2023-05-17T03:47:05;14.30;71.70
80367;DHT22;70058;42.660;23.366;2023-05-17T03:49:31;13.90;73.20
80367;DHT22;70058;42.660;23.366;2023-05-17T03:51:57;13.70;74.30
80367;DHT22;70058;42.660;23.366;2023-05-17T03:54:22;13.50;75.00
80367;DHT22;70058;42.660;23.366;2023-05-17T03:56:48;13.60;74.70
80367;DHT22;70058;42.660;23.366;2023-05-17T03:59:14;13.70;74.60
80367;DHT22;70058;42.660;23.366;2023-05-17T04:01:41;13.90;74.10
80367;DHT22;70058;42.660;23.366;2023-05-17T04:04:07;14.30;73.40
80367;DHT22;70058;42.660;23.366;2023-05-17T04:06:33;14.50;72.50
80367;DHT22;70058;42.660;23.366;2023-05-17T04:08:59;14.70;71.10
80367;DHT22;70058;42.660;23.366;2023-05-17T04:11:25;14.40;72.40
80367;DHT22;70058;42.660;23.366;2023-05-17T04:13:53;14.20;72.10
80367;DHT22;70058;42.660;23.366;2023-05-17T04:16:19;13.90;73.60
80367;DHT22;70058;42.660;23.366;2023-05-17T04:18:45;14.00;73.70
80367;DHT22;70058;42.660;23.366;2023-05-17T04:21:11;14.60;73.80
80367;DHT22;70058;42.660;23.366;2023-05-17T04:23:37;14.90;70.70
80367;DHT22;70058;42.660;23.366;2023-05-17T04:26:04;15.60;70.10
80367;DHT22;70058;42.660;23.366;2023-05-17T04:28:31;15.90;68.50
80367;DHT22;70058;42.660;23.366;2023-05-17T04:31:06;15.90;67.80
80367;DHT22;70058;42.660;23.366;2023-05-17T04:33:37;15.70;67.30
80367;DHT22;70058;42.660;23.366;2023-05-17T04:36:04;15.20;69.30
80367;DHT22;70058;42.660;23.366;2023-05-17T04:38:30;15.60;69.30
80367;DHT22;70058;42.660;23.366;2023-05-17T04:41:03;15.90;67.80
80367;DHT22;70058;42.660;23.366;2023-05-17T04:43:30;16.30;67.20
80367;DHT22;70058;42.660;23.366;2023-05-17T04:45:59;16.30;66.50
80367;DHT22;70058;42.660;23.366;2023-05-17T04:48:25;16.50;65.80
80367;DHT22;70058;42.660;23.366;2023-05-17T04:50:54;16.90;65.30
80367;DHT22;70058;42.660;23.366;2023-05-17T04:53:20;16.70;64.00
80367;DHT22;70058;42.660;23.366;2023-05-17T04:55:46;16.80;65.50
80367;DHT22;70058;42.660;23.366;2023-05-17T04:58:13;17.20;64.90
80367;DHT22;70058;42.660;23.366;2023-05-17T05:00:39;16.80;63.70
80367;DHT22;70058;42.660;23.366;2023-05-17T05:03:05;16.70;64.90
80367;DHT22;70058;42.660;23.366;2023-05-17T05:05:45;17.10;64.20
80367;DHT22;70058;42.660;23.366;2023-05-17T05:08:11;16.80;63.50
80367;DHT22;70058;42.660;23.366;2023-05-17T05:10:37;16.80;64.90
80367;DHT22;70058;42.660;23.366;2023-05-17T05:13:03;17.00;64.40
80367;DHT22;70058;42.660;23.366;2023-05-17T05:15:42;17.20;63.30
80367;DHT22;70058;42.660;23.366;2023-05-17T05:18:20;16.50;63.50
80367;DHT22;70058;42.660;23.366;2023-05-17T05:20:47;16.30;65.50
80367;DHT22;70058;42.660;23.366;2023-05-17T05:23:14;16.10;66.20
80367;DHT22;70058;42.660;23.366;2023-05-17T05:25:42;16.50;65.40
80367;DHT22;70058;42.660;23.366;2023-05-17T05:28:08;16.60;64.80
80367;DHT22;70058;42.660;23.366;2023-05-17T05:30:34;16.60;64.60
80367;DHT22;70058;42.660;23.366;2023-05-17T05:33:00;16.60;64.10
80367;DHT22;70058;42.660;23.366;2023-05-17T05:35:27;16.40;65.10
80367;DHT22;70058;42.660;23.366;2023-05-17T05:37:58;16.30;65.90
80367;DHT22;70058;42.660;23.366;2023-05-17T05:40:24;16.60;64.90
80367;DHT22;70058;42.660;23.366;2023-05-17T05:42:53;16.40;65.20
80367;DHT22;70058;42.660;23.366;2023-05-17T05:45:19;16.60;64.40
80367;DHT22;70058;42.660;23.366;2023-05-17T05:47:47;16.90;63.20
80367;DHT22;70058;42.660;23.366;2023-05-17T05:50:13;17.20;62.80
80367;DHT22;70058;42.660;23.366;2023-05-17T05:52:39;17.40;61.50
80367;DHT22;70058;42.660;23.366;2023-05-17T05:55:05;18.10;61.00
80367;DHT22;70058;42.660;23.366;2023-05-17T05:57:31;19.60;57.40
80367;DHT22;70058;42.660;23.366;2023-05-17T05:59:57;20.80;54.30
80367;DHT22;70058;42.660;23.366;2023-05-17T06:02:24;21.80;49.80
80367;DHT22;70058;42.660;23.366;2023-05-17T06:04:50;23.30;48.00
80367;DHT22;70058;42.660;23.366;2023-05-17T06:07:32;24.90;44.10
80367;DHT22;70058;42.660;23.366;2023-05-17T06:12:26;24.70;39.90
80367;DHT22;70058;42.660;23.366;2023-05-17T06:14:52;23.60;45.80
80367;DHT22;70058;42.660;23.366;2023-05-17T06:17:18;25.10;43.00
80367;DHT22;70058;42.660;23.366;2023-05-17T06:19:45;25.70;39.50
80367;DHT22;70058;42.660;23.366;2023-05-17T06:22:13;26.10;40.10
80367;DHT22;70058;42.660;23.366;2023-05-17T06:24:39;26.50;40.20
80367;DHT22;70058;42.660;23.366;2023-05-17T06:27:05;27.50;37.30
80367;DHT22;70058;42.660;23.366;2023-05-17T06:29:31;25.70;37.90
80367;DHT22;70058;42.660;23.366;2023-05-17T06:31:57;26.10;39.20
80367;DHT22;70058;42.660;23.366;2023-05-17T06:34:24;24.50;40.90
80367;DHT22;70058;42.660;23.366;2023-05-17T06:36:50;24.70;42.00
80367;DHT22;70058;42.660;23.366;2023-05-17T06:39:16;24.30;42.00
80367;DHT22;70058;42.660;23.366;2023-05-17T06:41:42;25.40;40.50
80367;DHT22;70058;42.660;23.366;2023-05-17T06:44:09;25.60;38.40
80367;DHT22;70058;42.660;23.366;2023-05-17T06:46:35;25.50;39.60
80367;DHT22;70058;42.660;23.366;2023-05-17T06:49:00;27.10;37.80
80367;DHT22;70058;42.660;23.366;2023-05-17T06:51:26;25.80;39.70
80367;DHT22;70058;42.660;23.366;2023-05-17T06:53:52;27.50;37.70
80367;DHT22;70058;42.660;23.366;2023-05-17T06:56:22;26.70;37.30
80367;DHT22;70058;42.660;23.366;2023-05-17T06:58:48;25.60;38.60
80367;DHT22;70058;42.660;23.366;2023-05-17T07:01:13;24.10;41.10
80367;DHT22;70058;42.660;23.366;2023-05-17T07:03:40;25.50;41.70
80367;DHT22;70058;42.660;23.366;2023-05-17T07:06:06;24.40;40.50
80367;DHT22;70058;42.660;23.366;2023-05-17T07:08:35;24.10;43.50
80367;DHT22;70058;42.660;23.366;2023-05-17T07:11:00;25.90;41.00
80367;DHT22;70058;42.660;23.366;2023-05-17T07:13:27;28.10;37.40
80367;DHT22;70058;42.660;23.366;2023-05-17T07:15:53;27.80;36.20
80367;DHT22;70058;42.660;23.366;2023-05-17T07:18:19;25.30;41.50
80367;DHT22;70058;42.660;23.366;2023-05-17T07:20:45;25.80;40.80
80367;DHT22;70058;42.660;23.366;2023-05-17T07:23:11;27.90;38.00
80367;DHT22;70058;42.660;23.366;2023-05-17T07:25:37;25.60;40.50
80367;DHT22;70058;42.660;23.366;2023-05-17T07:28:05;27.50;38.60
80367;DHT22;70058;42.660;23.366;2023-05-17T07:30:31;28.70;36.00
80367;DHT22;70058;42.660;23.366;2023-05-17T07:32:56;25.80;39.00
80367;DHT22;70058;42.660;23.366;2023-05-17T07:35:22;23.80;44.40
80367;DHT22;70058;42.660;23.366;2023-05-17T07:37:47;22.50;47.20
80367;DHT22;70058;42.660;23.366;2023-05-17T07:40:13;24.30;44.80
80367;DHT22;70058;42.660;23.366;2023-05-17T07:42:39;25.70;41.10
80367;DHT22;70058;42.660;23.366;2023-05-17T07:45:05;24.40;40.90
80367;DHT22;70058;42.660;23.366;2023-05-17T07:47:31;23.90;44.80
80367;DHT22;70058;42.660;23.366;2023-05-17T07:49:57;25.00;42.90
80367;DHT22;70058;42.660;23.366;2023-05-17T07:52:23;26.30;40.50
80367;DHT22;70058;42.660;23.366;2023-05-17T07:54:51;27.20;39.10
80367;DHT22;70058;42.660;23.366;2023-05-17T07:57:17;27.30;38.30
80367;DHT22;70058;42.660;23.366;2023-05-17T07:59:44;27.60;38.00
80367;DHT22;70058;42.660;23.366;2023-05-17T08:02:10;26.90;37.10
80367;DHT22;70058;42.660;23.366;2023-05-17T08:04:36;27.30;37.30
80367;DHT22;70058;42.660;23.366;2023-05-17T08:07:03;28.00;37.20
80367;DHT22;70058;42.660;23.366;2023-05-17T08:09:29;28.20;34.80
80367;DHT22;70058;42.660;23.366;2023-05-17T08:11:55;29.00;35.70
80367;DHT22;70058;42.660;23.366;2023-05-17T08:14:22;27.50;36.50
80367;DHT22;70058;42.660;23.366;2023-05-17T08:16:49;28.60;35.00
80367;DHT22;70058;42.660;23.366;2023-05-17T08:19:17;29.50;34.80
80367;DHT22;70058;42.660;23.366;2023-05-17T08:21:43;26.80;37.80
80367;DHT22;70058;42.660;23.366;2023-05-17T08:24:11;26.00;38.10
80367;DHT22;70058;42.660;23.366;2023-05-17T08:26:40;24.70;40.40
80367;DHT22;70058;42.660;23.366;2023-05-17T08:29:05;24.50;43.40
80367;DHT22;70058;42.660;23.366;2023-05-17T08:31:34;24.50;42.00
80367;DHT22;70058;42.660;23.366;2023-05-17T08:34:00;25.10;42.30
80367;DHT22;70058;42.660;23.366;2023-05-17T08:36:26;26.50;40.60
80367;DHT22;70058;42.660;23.366;2023-05-17T08:38:53;27.00;38.80
80367;DHT22;70058;42.660;23.366;2023-05-17T08:41:19;27.00;38.50
80367;DHT22;70058;42.660;23.366;2023-05-17T08:43:47;27.40;37.20
80367;DHT22;70058;42.660;23.366;2023-05-17T08:46:13;26.50;37.90
80367;DHT22;70058;42.660;23.366;2023-05-17T08:48:41;25.80;39.20
80367;DHT22;70058;42.660;23.366;2023-05-17T08:51:07;26.30;39.90
80367;DHT22;70058;42.660;23.366;2023-05-17T08:53:42;25.50;39.30
80367;DHT22;70058;42.660;23.366;2023-05-17T08:56:13;23.60;44.00
80367;DHT22;70058;42.660;23.366;2023-05-17T08:58:42;24.20;45.00
80367;DHT22;70058;42.660;23.366;2023-05-17T09:01:08;23.80;44.10
80367;DHT22;70058;42.660;23.366;2023-05-17T09:03:35;24.30;44.20
80367;DHT22;70058;42.660;23.366;2023-05-17T09:06:04;24.60;44.20
80367;DHT22;70058;42.660;23.366;2023-05-17T09:08:30;25.40;42.70
80367;DHT22;70058;42.660;23.366;2023-05-17T09:10:57;26.00;41.70
80367;DHT22;70058;42.660;23.366;2023-05-17T09:13:24;26.60;40.40
80367;DHT22;70058;42.660;23.366;2023-05-17T09:15:51;25.40;41.30
80367;DHT22;70058;42.660;23.366;2023-05-17T09:18:18;24.20;41.30
80367;DHT22;70058;42.660;23.366;2023-05-17T09:20:49;23.70;45.40
80367;DHT22;70058;42.660;23.366;2023-05-17T09:23:19;24.80;43.70
80367;DHT22;70058;42.660;23.366;2023-05-17T09:25:47;24.20;44.20
80367;DHT22;70058;42.660;23.366;2023-05-17T09:28:13;24.20;44.70
80367;DHT22;70058;42.660;23.366;2023-05-17T09:30:39;25.10;43.20
80367;DHT22;70058;42.660;23.366;2023-05-17T09:33:08;23.90;43.70
80367;DHT22;70058;42.660;23.366;2023-05-17T09:35:36;23.70;45.20
80367;DHT22;70058;42.660;23.366;2023-05-17T09:38:11;23.20;46.80
80367;DHT22;70058;42.660;23.366;2023-05-17T09:40:39;23.80;45.60
80367;DHT22;70058;42.660;23.366;2023-05-17T09:43:06;22.70;47.60
80367;DHT22;70058;42.660;23.366;2023-05-17T09:45:32;22.20;49.60
80367;DHT22;70058;42.660;23.366;2023-05-17T09:48:24;21.80;50.80
80367;DHT22;70058;42.660;23.366;2023-05-17T09:50:52;21.50;51.40
80367;DHT22;70058;42.660;23.366;2023-05-17T09:53:28;21.80;48.90
80367;DHT22;70058;42.660;23.366;2023-05-17T09:56:01;20.40;52.90
80367;DHT22;70058;42.660;23.366;2023-05-17T09:58:27;20.30;53.00
80367;DHT22;70058;42.660;23.366;2023-05-17T10:01:01;20.20;54.50
80367;DHT22;70058;42.660;23.366;2023-05-17T10:03:36;20.30;53.40
80367;DHT22;70058;42.660;23.366;2023-05-17T10:06:05;20.50;54.20
80367;DHT22;70058;42.660;23.366;2023-05-17T10:08:32;20.40;53.30
80367;DHT22;70058;42.660;23.366;2023-05-17T10:11:07;20.60;54.40
80367;DHT22;70058;42.660;23.366;2023-05-17T10:13:46;21.70;51.70
80367;DHT22;70058;42.660;23.366;2023-05-17T10:16:14;21.10;52.10
80367;DHT22;70058;42.660;23.366;2023-05-17T10:18:41;21.00;52.80
80367;DHT22;70058;42.660;23.366;2023-05-17T10:21:08;20.90;52.30
80367;DHT22;70058;42.660;23.366;2023-05-17T10:23:36;20.50;53.30
80367;DHT22;70058;42.660;23.366;2023-05-17T10:26:05;20.10;53.30
80367;DHT22;70058;42.660;23.366;2023-05-17T10:28:32;20.20;53.90
80367;DHT22;70058;42.660;23.366;2023-05-17T10:30:58;20.60;51.90
80367;DHT22;70058;42.660;23.366;2023-05-17T10:33:26;20.50;53.00
80367;DHT22;70058;42.660;23.366;2023-05-17T10:35:54;19.70;53.80
80367;DHT22;70058;42.660;23.366;2023-05-17T10:38:20;19.30;56.00
80367;DHT22;70058;42.660;23.366;2023-05-17T10:40:49;19.20;56.10
80367;DHT22;70058;42.660;23.366;2023-05-17T10:43:19;19.40;55.50
80367;DHT22;70058;42.660;23.366;2023-05-17T10:45:45;19.90;55.50
80367;DHT22;70058;42.660;23.366;2023-05-17T10:48:14;20.10;54.30
80367;DHT22;70058;42.660;23.366;2023-05-17T10:50:40;20.20;53.20
80367;DHT22;70058;42.660;23.366;2023-05-17T10:53:08;20.20;53.30
80367;DHT22;70058;42.660;23.366;2023-05-17T10:55:42;20.30;53.20
80367;DHT22;70058;42.660;23.366;2023-05-17T10:58:22;19.80;54.10
80367;DHT22;70058;42.660;23.366;2023-05-17T11:00:53;20.20;53.90
80367;DHT22;70058;42.660;23.366;2023-05-17T11:03:27;21.10;52.90
80367;DHT22;70058;42.660;23.366;2023-05-17T11:06:16;21.40;50.60
80367;DHT22;70058;42.660;23.366;2023-05-17T11:09:23;21.20;50.10
80367;DHT22;70058;42.660;23.366;2023-05-17T11:12:06;21.20;49.00
80367;DHT22;70058;42.660;23.366;2023-05-17T11:17:38;21.10;48.90
80367;DHT22;70058;42.660;23.366;2023-05-17T11:25:25;20.60;52.50
80367;DHT22;70058;42.660;23.366;2023-05-17T11:27:53;21.20;53.20
80367;DHT22;70058;42.660;23.366;2023-05-17T11:30:25;21.50;51.40
80367;DHT22;70058;42.660;23.366;2023-05-17T11:32:58;22.00;50.40
80367;DHT22;70058;42.660;23.366;2023-05-17T11:35:31;21.80;50.90
80367;DHT22;70058;42.660;23.366;2023-05-17T11:38:20;21.00;53.20
80367;DHT22;70058;42.660;23.366;2023-05-17T11:40:49;21.10;52.20
80367;DHT22;70058;42.660;23.366;2023-05-17T11:43:19;20.10;55.30
80367;DHT22;70058;42.660;23.366;2023-05-17T11:45:48;20.30;55.70
80367;DHT22;70058;42.660;23.366;2023-05-17T11:48:17;20.70;54.60
80367;DHT22;70058;42.660;23.366;2023-05-17T11:50:45;21.30;52.40
80367;DHT22;70058;42.660;23.366;2023-05-17T11:53:11;21.20;51.00
80367;DHT22;70058;42.660;23.366;2023-05-17T11:55:45;21.20;52.10
80367;DHT22;70058;42.660;23.366;2023-05-17T11:58:19;20.50;53.30
80367;DHT22;70058;42.660;23.366;2023-05-17T12:00:52;19.60;56.70
80367;DHT22;70058;42.660;23.366;2023-05-17T12:03:20;20.10;55.20
80367;DHT22;70058;42.660;23.366;2023-05-17T12:05:48;20.30;55.40
80367;DHT22;70058;42.660;23.366;2023-05-17T12:08:17;20.20;53.20
80367;DHT22;70058;42.660;23.366;2023-05-17T12:10:49;20.30;53.20
80367;DHT22;70058;42.660;23.366;2023-05-17T12:13:15;20.10;54.10
80367;DHT22;70058;42.660;23.366;2023-05-17T12:15:44;20.40;53.00
80367;DHT22;70058;42.660;23.366;2023-05-17T12:18:12;19.80;54.90
80367;DHT22;70058;42.660;23.366;2023-05-17T12:20:52;20.20;54.20
80367;DHT22;70058;42.660;23.366;2023-05-17T12:23:25;20.60;53.70
80367;DHT22;70058;42.660;23.366;2023-05-17T12:26:07;20.40;53.10
80367;DHT22;70058;42.660;23.366;2023-05-17T12:28:38;20.80;52.70
80367;DHT22;70058;42.660;23.366;2023-05-17T12:33:55;20.80;53.20
80367;DHT22;70058;42.660;23.366;2023-05-17T12:36:27;21.50;50.60
80367;DHT22;70058;42.660;23.366;2023-05-17T12:38:54;21.20;50.70
80367;DHT22;70058;42.660;23.366;2023-05-17T12:41:21;20.60;51.50
80367;DHT22;70058;42.660;23.366;2023-05-17T12:43:48;21.00;51.90
80367;DHT22;70058;42.660;23.366;2023-05-17T12:46:21;21.60;50.40
80367;DHT22;70058;42.660;23.366;2023-05-17T12:48:49;21.50;50.90
80367;DHT22;70058;42.660;23.366;2023-05-17T12:51:17;20.10;54.40
80367;DHT22;70058;42.660;23.366;2023-05-17T12:53:48;20.10;55.10
80367;DHT22;70058;42.660;23.366;2023-05-17T12:56:23;20.10;55.10
80367;DHT22;70058;42.660;23.366;2023-05-17T13:01:38;20.90;53.60
80367;DHT22;70058;42.660;23.366;2023-05-17T13:04:05;21.00;52.70
80367;DHT22;70058;42.660;23.366;2023-05-17T13:06:58;21.50;51.40
80367;DHT22;70058;42.660;23.366;2023-05-17T13:09:25;21.80;50.20
80367;DHT22;70058;42.660;23.366;2023-05-17T13:12:05;22.10;49.50
80367;DHT22;70058;42.660;23.366;2023-05-17T13:17:10;19.80;55.80
80367;DHT22;70058;42.660;23.366;2023-05-17T13:19:39;19.70;55.70
80367;DHT22;70058;42.660;23.366;2023-05-17T13:22:05;19.20;57.80
80367;DHT22;70058;42.660;23.366;2023-05-17T13:24:38;19.20;57.70
80367;DHT22;70058;42.660;23.366;2023-05-17T13:27:05;19.30;58.30
80367;DHT22;70058;42.660;23.366;2023-05-17T13:29:32;19.40;57.00
80367;DHT22;70058;42.660;23.366;2023-05-17T13:31:58;19.30;57.40
80367;DHT22;70058;42.660;23.366;2023-05-17T13:34:24;19.70;56.60
80367;DHT22;70058;42.660;23.366;2023-05-17T13:36:50;19.80;55.00
80367;DHT22;70058;42.660;23.366;2023-05-17T13:39:16;19.80;56.00
80367;DHT22;70058;42.660;23.366;2023-05-17T13:41:41;19.10;56.90
80367;DHT22;70058;42.660;23.366;2023-05-17T13:44:09;18.80;58.30
80367;DHT22;70058;42.660;23.366;2023-05-17T13:46:35;19.00;57.90
80367;DHT22;70058;42.660;23.366;2023-05-17T13:49:01;19.00;57.00
80367;DHT22;70058;42.660;23.366;2023-05-17T13:51:32;19.40;56.20
80367;DHT22;70058;42.660;23.366;2023-05-17T13:53:59;19.30;56.10
80367;DHT22;70058;42.660;23.366;2023-05-17T13:56:25;19.30;55.90
80367;DHT22;70058;42.660;23.366;2023-05-17T13:58:51;19.20;54.80
80367;DHT22;70058;42.660;23.366;2023-05-17T14:01:17;19.20;55.90
80367;DHT22;70058;42.660;23.366;2023-05-17T14:03:46;19.00;55.50
80367;DHT22;70058;42.660;23.366;2023-05-17T14:06:12;18.60;57.70
80367;DHT22;70058;42.660;23.366;2023-05-17T14:08:38;18.60;56.30
80367;DHT22;70058;42.660;23.366;2023-05-17T14:11:04;18.60;56.10
80367;DHT22;70058;42.660;23.366;2023-05-17T14:13:30;18.30;56.50
80367;DHT22;70058;42.660;23.366;2023-05-17T14:15:56;18.10;57.30
80367;DHT22;70058;42.660;23.366;2023-05-17T14:18:21;18.00;57.60
80367;DHT22;70058;42.660;23.366;2023-05-17T14:20:48;18.20;57.40
80367;DHT22;70058;42.660;23.366;2023-05-17T14:23:14;18.40;56.90
80367;DHT22;70058;42.660;23.366;2023-05-17T14:25:39;18.40;56.90
80367;DHT22;70058;42.660;23.366;2023-05-17T14:28:08;18.60;56.60
80367;DHT22;70058;42.660;23.366;2023-05-17T14:30:35;18.50;56.70
80367;DHT22;70058;42.660;23.366;2023-05-17T14:33:01;18.70;56.80
80367;DHT22;70058;42.660;23.366;2023-05-17T14:35:33;19.00;56.60
80367;DHT22;70058;42.660;23.366;2023-05-17T14:37:59;19.40;55.50
80367;DHT22;70058;42.660;23.366;2023-05-17T14:40:25;19.70;54.60
80367;DHT22;70058;42.660;23.366;2023-05-17T14:42:51;20.00;53.90
80367;DHT22;70058;42.660;23.366;2023-05-17T14:45:17;19.80;53.90
80367;DHT22;70058;42.660;23.366;2023-05-17T14:47:43;19.60;53.30
80367;DHT22;70058;42.660;23.366;2023-05-17T14:50:09;18.70;56.30
80367;DHT22;70058;42.660;23.366;2023-05-17T14:52:35;18.10;58.10
80367;DHT22;70058;42.660;23.366;2023-05-17T14:55:01;18.30;58.90
80367;DHT22;70058;42.660;23.366;2023-05-17T14:57:32;18.50;58.40
80367;DHT22;70058;42.660;23.366;2023-05-17T14:59:58;18.40;57.50
80367;DHT22;70058;42.660;23.366;2023-05-17T15:02:25;18.60;59.60
80367;DHT22;70058;42.660;23.366;2023-05-17T15:04:51;18.80;60.60
80367;DHT22;70058;42.660;23.366;2023-05-17T15:07:21;19.00;66.90
80367;DHT22;70058;42.660;23.366;2023-05-17T15:09:50;18.80;68.00
80367;DHT22;70058;42.660;23.366;2023-05-17T15:12:16;18.30;69.90
80367;DHT22;70058;42.660;23.366;2023-05-17T15:14:41;17.90;74.70
80367;DHT22;70058;42.660;23.366;2023-05-17T15:17:08;17.20;76.90
80367;DHT22;70058;42.660;23.366;2023-05-17T15:19:34;17.20;81.10
80367;DHT22;70058;42.660;23.366;2023-05-17T15:22:00;17.00;82.40
80367;DHT22;70058;42.660;23.366;2023-05-17T15:24:27;16.90;83.90
80367;DHT22;70058;42.660;23.366;2023-05-17T15:26:53;16.90;84.60
80367;DHT22;70058;42.660;23.366;2023-05-17T15:29:18;17.00;84.50
80367;DHT22;70058;42.660;23.366;2023-05-17T15:31:44;17.00;84.00
80367;DHT22;70058;42.660;23.366;2023-05-17T15:34:10;17.00;84.50
80367;DHT22;70058;42.660;23.366;2023-05-17T15:36:36;17.10;84.40
80367;DHT22;70058;42.660;23.366;2023-05-17T15:39:02;17.20;83.70
80367;DHT22;70058;42.660;23.366;2023-05-17T15:41:30;17.30;83.30
80367;DHT22;70058;42.660;23.366;2023-05-17T15:43:55;17.40;83.10